sensor_id;sensor_type;location;lat;lon;timestamp;P1;durP1;ratioP1;P2;durP2;ratioP2
21527;SDS011;10925;49.102;-0.370;2022-07-18T00:01:06;4.22;;;2.05;;
21527;SDS011;10925;49.102;-0.370;2022-07-18T00:03:33;7.70;;;2.03;;
21527;SDS011;10925;49.102;-0.370;2022-07-18T00:05:59;8.68;;;2.35;;
21527;SDS011;10925;49.102;-0.370;2022-07-18T00:08:25;5.05;;;1.95;;
21527;SDS011;10925;49.102;-0.370;2022-07-18T00:13:38;4.50;;;2.10;;
21527;SDS011;10925;49.102;-0.370;2022-07-18T00:16:06;3.92;;;1.73;;
21527;SDS011;10925;49.102;-0.370;2022-07-18T00:18:33;5.22;;;2.10;;
21527;SDS011;10925;49.102;-0.370;2022-07-18T00:20:59;5.22;;;1.88;;
21527;SDS011;10925;49.102;-0.370;2022-07-18T00:23:25;3.13;;;2.25;;
21527;SDS011;10925;49.102;-0.370;2022-07-18T00:25:50;10.40;;;2.15;;
21527;SDS011;10925;49.102;-0.370;2022-07-18T00:28:16;4.55;;;1.77;;
21527;SDS011;10925;49.102;-0.370;2022-07-18T00:30:42;2.33;;;1.77;;
21527;SDS011;10925;49.102;-0.370;2022-07-18T00:33:09;7.90;;;1.90;;
21527;SDS011;10925;49.102;-0.370;2022-07-18T00:35:36;5.20;;;1.88;;
21527;SDS011;10925;49.102;-0.370;2022-07-18T00:38:03;4.97;;;1.67;;
21527;SDS011;10925;49.102;-0.370;2022-07-18T00:40:32;6.32;;;2.08;;
21527;SDS011;10925;49.102;-0.370;2022-07-18T00:42:59;5.22;;;1.80;;
21527;SDS011;10925;49.102;-0.370;2022-07-18T00:45:26;4.10;;;2.13;;
21527;SDS011;10925;49.102;-0.370;2022-07-18T00:47:52;6.65;;;2.13;;
21527;SDS011;10925;49.102;-0.370;2022-07-18T00:50:19;8.25;;;2.05;;
21527;SDS011;10925;49.102;-0.370;2022-07-18T00:52:45;4.90;;;1.77;;
21527;SDS011;10925;49.102;-0.370;2022-07-18T00:55:12;3.75;;;1.70;;
21527;SDS011;10925;49.102;-0.370;2022-07-18T00:57:39;8.15;;;2.00;;
21527;SDS011;10925;49.102;-0.370;2022-07-18T01:00:07;4.75;;;1.98;;
21527;SDS011;10925;49.102;-0.370;2022-07-18T01:05:19;3.28;;;1.77;;
21527;SDS011;10925;49.102;-0.370;2022-07-18T01:07:46;4.30;;;1.52;;
21527;SDS011;10925;49.102;-0.370;2022-07-18T01:10:13;4.72;;;1.60;;
21527;SDS011;10925;49.102;-0.370;2022-07-18T01:12:40;4.38;;;1.63;;
21527;SDS011;10925;49.102;-0.370;2022-07-18T01:15:06;6.03;;;1.45;;
21527;SDS011;10925;49.102;-0.370;2022-07-18T01:17:33;7.45;;;1.90;;
21527;SDS011;10925;49.102;-0.370;2022-07-18T01:20:00;7.30;;;2.10;;
21527;SDS011;10925;49.102;-0.370;2022-07-18T01:22:28;2.85;;;1.77;;
21527;SDS011;10925;49.102;-0.370;2022-07-18T01:24:53;4.45;;;1.73;;
21527;SDS011;10925;49.102;-0.370;2022-07-18T01:27:20;4.65;;;2.08;;
21527;SDS011;10925;49.102;-0.370;2022-07-18T01:29:46;5.45;;;1.70;;
21527;SDS011;10925;49.102;-0.370;2022-07-18T01:32:11;6.13;;;2.05;;
21527;SDS011;10925;49.102;-0.370;2022-07-18T01:34:39;2.92;;;1.75;;
21527;SDS011;10925;49.102;-0.370;2022-07-18T01:37:06;5.97;;;1.95;;
21527;SDS011;10925;49.102;-0.370;2022-07-18T01:39:34;8.77;;;1.83;;
21527;SDS011;10925;49.102;-0.370;2022-07-18T01:42:02;2.70;;;1.75;;
21527;SDS011;10925;49.102;-0.370;2022-07-18T01:44:29;5.03;;;1.73;;
21527;SDS011;10925;49.102;-0.370;2022-07-18T01:46:56;5.50;;;1.73;;
21527;SDS011;10925;49.102;-0.370;2022-07-18T01:49:23;3.00;;;2.08;;
21527;SDS011;10925;49.102;-0.370;2022-07-18T01:51:51;3.03;;;1.77;;
21527;SDS011;10925;49.102;-0.370;2022-07-18T01:54:20;4.25;;;1.90;;
21527;SDS011;10925;49.102;-0.370;2022-07-18T01:56:47;5.63;;;1.90;;
21527;SDS011;10925;49.102;-0.370;2022-07-18T01:59:14;3.65;;;1.60;;
21527;SDS011;10925;49.102;-0.370;2022-07-18T02:01:40;5.85;;;1.85;;
21527;SDS011;10925;49.102;-0.370;2022-07-18T02:04:07;4.65;;;1.85;;
21527;SDS011;10925;49.102;-0.370;2022-07-18T02:06:34;4.97;;;1.75;;
21527;SDS011;10925;49.102;-0.370;2022-07-18T02:09:01;6.20;;;1.48;;
21527;SDS011;10925;49.102;-0.370;2022-07-18T02:11:26;2.92;;;1.75;;
21527;SDS011;10925;49.102;-0.370;2022-07-18T02:13:53;5.45;;;1.73;;
21527;SDS011;10925;49.102;-0.370;2022-07-18T02:16:20;2.20;;;1.50;;
21527;SDS011;10925;49.102;-0.370;2022-07-18T02:18:45;4.57;;;1.83;;
21527;SDS011;10925;49.102;-0.370;2022-07-18T02:21:11;2.92;;;1.85;;
21527;SDS011;10925;49.102;-0.370;2022-07-18T02:23:38;4.90;;;1.80;;
21527;SDS011;10925;49.102;-0.370;2022-07-18T02:26:06;6.93;;;1.85;;
21527;SDS011;10925;49.102;-0.370;2022-07-18T02:28:33;6.97;;;2.28;;
21527;SDS011;10925;49.102;-0.370;2022-07-18T02:31:00;5.53;;;1.55;;
21527;SDS011;10925;49.102;-0.370;2022-07-18T02:33:26;7.30;;;2.03;;
21527;SDS011;10925;49.102;-0.370;2022-07-18T02:35:53;2.63;;;1.83;;
21527;SDS011;10925;49.102;-0.370;2022-07-18T02:38:20;6.78;;;1.88;;
21527;SDS011;10925;49.102;-0.370;2022-07-18T02:40:45;3.35;;;1.80;;
21527;SDS011;10925;49.102;-0.370;2022-07-18T02:43:11;4.07;;;1.83;;
21527;SDS011;10925;49.102;-0.370;2022-07-18T02:45:36;6.07;;;1.85;;
21527;SDS011;10925;49.102;-0.370;2022-07-18T02:48:08;4.68;;;1.88;;
21527;SDS011;10925;49.102;-0.370;2022-07-18T02:50:35;5.90;;;1.80;;
21527;SDS011;10925;49.102;-0.370;2022-07-18T02:53:02;6.35;;;2.08;;
21527;SDS011;10925;49.102;-0.370;2022-07-18T02:55:29;3.75;;;1.98;;
21527;SDS011;10925;49.102;-0.370;2022-07-18T02:57:56;2.75;;;1.67;;
21527;SDS011;10925;49.102;-0.370;2022-07-18T03:00:22;4.95;;;2.08;;
21527;SDS011;10925;49.102;-0.370;2022-07-18T03:02:49;9.85;;;2.63;;
21527;SDS011;10925;49.102;-0.370;2022-07-18T03:05:16;6.15;;;2.40;;
21527;SDS011;10925;49.102;-0.370;2022-07-18T03:07:43;3.47;;;1.92;;
21527;SDS011;10925;49.102;-0.370;2022-07-18T03:10:09;3.10;;;1.95;;
21527;SDS011;10925;49.102;-0.370;2022-07-18T03:12:36;3.75;;;2.00;;
21527;SDS011;10925;49.102;-0.370;2022-07-18T03:15:03;7.38;;;1.83;;
21527;SDS011;10925;49.102;-0.370;2022-07-18T03:17:28;11.35;;;2.20;;
21527;SDS011;10925;49.102;-0.370;2022-07-18T03:19:55;5.70;;;2.33;;
21527;SDS011;10925;49.102;-0.370;2022-07-18T03:22:22;5.63;;;2.40;;
21527;SDS011;10925;49.102;-0.370;2022-07-18T03:24:47;9.23;;;2.38;;
21527;SDS011;10925;49.102;-0.370;2022-07-18T03:27:14;3.90;;;2.20;;
21527;SDS011;10925;49.102;-0.370;2022-07-18T03:29:41;4.70;;;1.83;;
21527;SDS011;10925;49.102;-0.370;2022-07-18T03:32:07;5.85;;;1.90;;
21527;SDS011;10925;49.102;-0.370;2022-07-18T03:34:34;4.13;;;1.90;;
21527;SDS011;10925;49.102;-0.370;2022-07-18T03:37:01;4.90;;;1.98;;
21527;SDS011;10925;49.102;-0.370;2022-07-18T03:39:26;5.45;;;1.98;;
21527;SDS011;10925;49.102;-0.370;2022-07-18T03:41:52;7.78;;;2.33;;
21527;SDS011;10925;49.102;-0.370;2022-07-18T03:44:17;7.97;;;1.73;;
21527;SDS011;10925;49.102;-0.370;2022-07-18T03:46:43;5.22;;;1.75;;
21527;SDS011;10925;49.102;-0.370;2022-07-18T03:49:09;7.78;;;2.00;;
21527;SDS011;10925;49.102;-0.370;2022-07-18T03:51:36;4.07;;;1.90;;
21527;SDS011;10925;49.102;-0.370;2022-07-18T03:54:01;3.90;;;1.83;;
21527;SDS011;10925;49.102;-0.370;2022-07-18T03:56:27;4.55;;;2.13;;
21527;SDS011;10925;49.102;-0.370;2022-07-18T03:58:52;3.72;;;1.75;;
21527;SDS011;10925;49.102;-0.370;2022-07-18T04:01:18;5.30;;;2.45;;
21527;SDS011;10925;49.102;-0.370;2022-07-18T04:03:44;4.97;;;2.00;;
21527;SDS011;10925;49.102;-0.370;2022-07-18T04:06:11;10.93;;;1.90;;
21527;SDS011;10925;49.102;-0.370;2022-07-18T04:08:38;6.70;;;2.30;;
21527;SDS011;10925;49.102;-0.370;2022-07-18T04:11:05;5.97;;;1.90;;
21527;SDS011;10925;49.102;-0.370;2022-07-18T04:13:31;6.20;;;2.00;;
21527;SDS011;10925;49.102;-0.370;2022-07-18T04:15:58;7.22;;;2.00;;
21527;SDS011;10925;49.102;-0.370;2022-07-18T04:18:25;12.40;;;2.13;;
21527;SDS011;10925;49.102;-0.370;2022-07-18T04:20:52;18.70;;;3.05;;
21527;SDS011;10925;49.102;-0.370;2022-07-18T04:23:17;36.38;;;4.72;;
21527;SDS011;10925;49.102;-0.370;2022-07-18T04:25:44;28.80;;;4.38;;
21527;SDS011;10925;49.102;-0.370;2022-07-18T04:28:12;33.78;;;4.50;;
21527;SDS011;10925;49.102;-0.370;2022-07-18T04:30:38;27.20;;;4.28;;
21527;SDS011;10925;49.102;-0.370;2022-07-18T04:33:06;14.57;;;3.42;;
21527;SDS011;10925;49.102;-0.370;2022-07-18T04:35:33;12.50;;;2.75;;
21527;SDS011;10925;49.102;-0.370;2022-07-18T04:40:26;7.80;;;2.13;;
21527;SDS011;10925;49.102;-0.370;2022-07-18T04:42:53;7.97;;;2.17;;
21527;SDS011;10925;49.102;-0.370;2022-07-18T04:45:18;6.80;;;2.25;;
21527;SDS011;10925;49.102;-0.370;2022-07-18T04:47:49;7.47;;;2.20;;
21527;SDS011;10925;49.102;-0.370;2022-07-18T04:50:16;3.45;;;2.15;;
21527;SDS011;10925;49.102;-0.370;2022-07-18T04:52:44;4.70;;;1.92;;
21527;SDS011;10925;49.102;-0.370;2022-07-18T04:55:12;3.58;;;1.95;;
21527;SDS011;10925;49.102;-0.370;2022-07-18T04:57:39;6.53;;;1.88;;
21527;SDS011;10925;49.102;-0.370;2022-07-18T05:00:07;4.90;;;2.08;;
21527;SDS011;10925;49.102;-0.370;2022-07-18T05:02:34;5.40;;;2.72;;
21527;SDS011;10925;49.102;-0.370;2022-07-18T05:05:01;8.32;;;2.55;;
21527;SDS011;10925;49.102;-0.370;2022-07-18T05:07:27;7.13;;;2.17;;
21527;SDS011;10925;49.102;-0.370;2022-07-18T05:09:54;4.65;;;2.00;;
21527;SDS011;10925;49.102;-0.370;2022-07-18T05:12:21;5.45;;;2.08;;
21527;SDS011;10925;49.102;-0.370;2022-07-18T05:14:50;5.38;;;1.85;;
21527;SDS011;10925;49.102;-0.370;2022-07-18T05:17:15;6.82;;;2.03;;
21527;SDS011;10925;49.102;-0.370;2022-07-18T05:19:42;4.68;;;2.45;;
21527;SDS011;10925;49.102;-0.370;2022-07-18T05:22:09;10.15;;;2.03;;
21527;SDS011;10925;49.102;-0.370;2022-07-18T05:24:36;9.60;;;2.22;;
21527;SDS011;10925;49.102;-0.370;2022-07-18T05:27:03;9.52;;;2.10;;
21527;SDS011;10925;49.102;-0.370;2022-07-18T05:29:30;4.95;;;2.17;;
21527;SDS011;10925;49.102;-0.370;2022-07-18T05:31:55;5.22;;;2.05;;
21527;SDS011;10925;49.102;-0.370;2022-07-18T05:34:21;10.52;;;2.50;;
21527;SDS011;10925;49.102;-0.370;2022-07-18T05:36:48;6.28;;;1.92;;
21527;SDS011;10925;49.102;-0.370;2022-07-18T05:39:13;5.90;;;2.28;;
21527;SDS011;10925;49.102;-0.370;2022-07-18T05:41:38;4.72;;;2.00;;
21527;SDS011;10925;49.102;-0.370;2022-07-18T05:44:05;17.33;;;3.05;;
21527;SDS011;10925;49.102;-0.370;2022-07-18T05:46:32;15.82;;;3.15;;
21527;SDS011;10925;49.102;-0.370;2022-07-18T05:48:59;19.60;;;3.40;;
21527;SDS011;10925;49.102;-0.370;2022-07-18T05:51:26;18.02;;;3.33;;
21527;SDS011;10925;49.102;-0.370;2022-07-18T05:53:53;25.00;;;3.47;;
21527;SDS011;10925;49.102;-0.370;2022-07-18T05:56:19;21.48;;;3.55;;
21527;SDS011;10925;49.102;-0.370;2022-07-18T05:58:46;19.48;;;3.15;;
21527;SDS011;10925;49.102;-0.370;2022-07-18T06:01:13;20.83;;;3.85;;
21527;SDS011;10925;49.102;-0.370;2022-07-18T06:03:43;17.85;;;3.05;;
21527;SDS011;10925;49.102;-0.370;2022-07-18T06:06:10;23.58;;;3.50;;
21527;SDS011;10925;49.102;-0.370;2022-07-18T06:08:37;15.68;;;2.67;;
21527;SDS011;10925;49.102;-0.370;2022-07-18T06:11:02;19.00;;;3.00;;
21527;SDS011;10925;49.102;-0.370;2022-07-18T06:13:30;24.00;;;3.00;;
21527;SDS011;10925;49.102;-0.370;2022-07-18T06:15:57;11.40;;;2.95;;
21527;SDS011;10925;49.102;-0.370;2022-07-18T06:18:24;18.08;;;2.88;;
21527;SDS011;10925;49.102;-0.370;2022-07-18T06:20:51;10.73;;;2.50;;
21527;SDS011;10925;49.102;-0.370;2022-07-18T06:23:17;11.15;;;2.40;;
21527;SDS011;10925;49.102;-0.370;2022-07-18T06:25:43;22.02;;;2.92;;
21527;SDS011;10925;49.102;-0.370;2022-07-18T06:28:08;15.60;;;2.67;;
21527;SDS011;10925;49.102;-0.370;2022-07-18T06:30:35;16.35;;;2.35;;
21527;SDS011;10925;49.102;-0.370;2022-07-18T06:33:00;20.60;;;2.90;;
21527;SDS011;10925;49.102;-0.370;2022-07-18T06:35:31;14.30;;;2.63;;
21527;SDS011;10925;49.102;-0.370;2022-07-18T06:37:58;18.35;;;3.03;;
21527;SDS011;10925;49.102;-0.370;2022-07-18T06:40:23;22.88;;;2.65;;
21527;SDS011;10925;49.102;-0.370;2022-07-18T06:42:53;19.83;;;2.80;;
21527;SDS011;10925;49.102;-0.370;2022-07-18T06:45:18;20.80;;;2.97;;
21527;SDS011;10925;49.102;-0.370;2022-07-18T06:47:44;24.20;;;3.22;;
21527;SDS011;10925;49.102;-0.370;2022-07-18T06:50:11;25.52;;;3.30;;
21527;SDS011;10925;49.102;-0.370;2022-07-18T06:52:38;30.70;;;3.67;;
21527;SDS011;10925;49.102;-0.370;2022-07-18T06:55:06;15.30;;;3.45;;
21527;SDS011;10925;49.102;-0.370;2022-07-18T06:57:33;18.55;;;2.78;;
21527;SDS011;10925;49.102;-0.370;2022-07-18T06:59:59;14.45;;;2.50;;
21527;SDS011;10925;49.102;-0.370;2022-07-18T07:02:24;11.70;;;2.67;;
21527;SDS011;10925;49.102;-0.370;2022-07-18T07:04:51;14.43;;;2.75;;
21527;SDS011;10925;49.102;-0.370;2022-07-18T07:07:17;19.33;;;3.33;;
21527;SDS011;10925;49.102;-0.370;2022-07-18T07:09:43;8.85;;;2.72;;
21527;SDS011;10925;49.102;-0.370;2022-07-18T07:12:08;11.10;;;1.85;;
21527;SDS011;10925;49.102;-0.370;2022-07-18T07:14:36;12.88;;;2.05;;
21527;SDS011;10925;49.102;-0.370;2022-07-18T07:17:03;16.40;;;2.25;;
21527;SDS011;10925;49.102;-0.370;2022-07-18T07:19:30;18.08;;;2.50;;
21527;SDS011;10925;49.102;-0.370;2022-07-18T07:21:57;13.73;;;2.58;;
21527;SDS011;10925;49.102;-0.370;2022-07-18T07:24:24;26.75;;;3.03;;
21527;SDS011;10925;49.102;-0.370;2022-07-18T07:26:50;9.65;;;2.45;;
21527;SDS011;10925;49.102;-0.370;2022-07-18T07:29:21;14.80;;;2.00;;
21527;SDS011;10925;49.102;-0.370;2022-07-18T07:31:48;21.17;;;2.40;;
21527;SDS011;10925;49.102;-0.370;2022-07-18T07:34:15;11.48;;;2.70;;
21527;SDS011;10925;49.102;-0.370;2022-07-18T07:36:42;10.20;;;2.15;;
21527;SDS011;10925;49.102;-0.370;2022-07-18T07:39:08;8.88;;;2.47;;
21527;SDS011;10925;49.102;-0.370;2022-07-18T07:41:35;4.70;;;2.10;;
21527;SDS011;10925;49.102;-0.370;2022-07-18T07:44:02;4.70;;;1.70;;
21527;SDS011;10925;49.102;-0.370;2022-07-18T07:46:29;11.57;;;2.35;;
21527;SDS011;10925;49.102;-0.370;2022-07-18T07:48:55;8.23;;;2.08;;
21527;SDS011;10925;49.102;-0.370;2022-07-18T07:51:22;9.50;;;1.70;;
21527;SDS011;10925;49.102;-0.370;2022-07-18T07:53:52;6.90;;;2.10;;
21527;SDS011;10925;49.102;-0.370;2022-07-18T07:56:18;9.75;;;1.95;;
21527;SDS011;10925;49.102;-0.370;2022-07-18T07:58:45;5.40;;;1.80;;
21527;SDS011;10925;49.102;-0.370;2022-07-18T08:01:11;8.27;;;1.95;;
21527;SDS011;10925;49.102;-0.370;2022-07-18T08:03:37;6.85;;;2.03;;
21527;SDS011;10925;49.102;-0.370;2022-07-18T08:06:04;5.47;;;1.90;;
21527;SDS011;10925;49.102;-0.370;2022-07-18T08:08:31;6.25;;;1.90;;
21527;SDS011;10925;49.102;-0.370;2022-07-18T08:10:56;10.18;;;1.98;;
21527;SDS011;10925;49.102;-0.370;2022-07-18T08:13:22;4.85;;;1.88;;
21527;SDS011;10925;49.102;-0.370;2022-07-18T08:15:47;4.38;;;1.80;;
21527;SDS011;10925;49.102;-0.370;2022-07-18T08:18:13;5.32;;;1.80;;
21527;SDS011;10925;49.102;-0.370;2022-07-18T08:20:39;2.63;;;1.73;;
21527;SDS011;10925;49.102;-0.370;2022-07-18T08:23:09;5.18;;;1.90;;
21527;SDS011;10925;49.102;-0.370;2022-07-18T08:25:38;5.57;;;1.85;;
21527;SDS011;10925;49.102;-0.370;2022-07-18T08:28:05;6.75;;;1.63;;
21527;SDS011;10925;49.102;-0.370;2022-07-18T08:30:32;6.20;;;1.60;;
21527;SDS011;10925;49.102;-0.370;2022-07-18T08:33:00;7.03;;;2.10;;
21527;SDS011;10925;49.102;-0.370;2022-07-18T08:35:30;4.25;;;1.70;;
21527;SDS011;10925;49.102;-0.370;2022-07-18T08:37:58;2.63;;;1.65;;
21527;SDS011;10925;49.102;-0.370;2022-07-18T08:40:25;3.17;;;1.75;;
21527;SDS011;10925;49.102;-0.370;2022-07-18T08:42:53;5.22;;;1.77;;
21527;SDS011;10925;49.102;-0.370;2022-07-18T08:45:43;11.35;;;2.00;;
21527;SDS011;10925;49.102;-0.370;2022-07-18T08:48:14;3.65;;;1.77;;
21527;SDS011;10925;49.102;-0.370;2022-07-18T08:50:44;6.03;;;1.98;;
21527;SDS011;10925;49.102;-0.370;2022-07-18T08:53:11;4.90;;;1.83;;
21527;SDS011;10925;49.102;-0.370;2022-07-18T08:55:39;6.38;;;1.92;;
21527;SDS011;10925;49.102;-0.370;2022-07-18T08:58:05;8.02;;;2.08;;
21527;SDS011;10925;49.102;-0.370;2022-07-18T09:00:52;10.40;;;2.05;;
21527;SDS011;10925;49.102;-0.370;2022-07-18T09:03:19;9.70;;;1.80;;
21527;SDS011;10925;49.102;-0.370;2022-07-18T09:06:01;6.63;;;1.73;;
21527;SDS011;10925;49.102;-0.370;2022-07-18T09:08:28;4.03;;;1.63;;
21527;SDS011;10925;49.102;-0.370;2022-07-18T09:10:55;3.28;;;1.77;;
21527;SDS011;10925;49.102;-0.370;2022-07-18T09:13:23;4.25;;;1.70;;
21527;SDS011;10925;49.102;-0.370;2022-07-18T09:15:59;6.15;;;1.70;;
21527;SDS011;10925;49.102;-0.370;2022-07-18T09:18:35;3.53;;;1.55;;
21527;SDS011;10925;49.102;-0.370;2022-07-18T09:21:01;8.07;;;1.90;;
21527;SDS011;10925;49.102;-0.370;2022-07-18T09:23:31;3.28;;;1.40;;
21527;SDS011;10925;49.102;-0.370;2022-07-18T09:25:58;10.43;;;2.20;;
21527;SDS011;10925;49.102;-0.370;2022-07-18T09:40:37;12.13;;;2.40;;
21527;SDS011;10925;49.102;-0.370;2022-07-18T09:43:08;19.63;;;2.80;;
21527;SDS011;10925;49.102;-0.370;2022-07-18T09:45:35;7.60;;;2.03;;
21527;SDS011;10925;49.102;-0.370;2022-07-18T09:48:08;4.60;;;1.83;;
21527;SDS011;10925;49.102;-0.370;2022-07-18T09:50:34;9.45;;;1.75;;
21527;SDS011;10925;49.102;-0.370;2022-07-18T09:53:06;7.20;;;1.77;;
21527;SDS011;10925;49.102;-0.370;2022-07-18T09:55:55;8.73;;;2.20;;
21527;SDS011;10925;49.102;-0.370;2022-07-18T09:58:23;5.97;;;1.70;;
21527;SDS011;10925;49.102;-0.370;2022-07-18T10:00:48;6.10;;;1.80;;
21527;SDS011;10925;49.102;-0.370;2022-07-18T10:03:16;10.85;;;1.90;;
21527;SDS011;10925;49.102;-0.370;2022-07-18T10:05:43;6.38;;;1.83;;
21527;SDS011;10925;49.102;-0.370;2022-07-18T10:08:13;6.38;;;2.15;;
21527;SDS011;10925;49.102;-0.370;2022-07-18T10:10:41;7.93;;;2.25;;
21527;SDS011;10925;49.102;-0.370;2022-07-18T10:13:09;8.38;;;2.45;;
21527;SDS011;10925;49.102;-0.370;2022-07-18T10:15:35;6.95;;;2.20;;
21527;SDS011;10925;49.102;-0.370;2022-07-18T10:18:04;6.63;;;2.33;;
21527;SDS011;10925;49.102;-0.370;2022-07-18T10:20:37;7.28;;;1.90;;
21527;SDS011;10925;49.102;-0.370;2022-07-18T10:23:08;9.23;;;2.22;;
21527;SDS011;10925;49.102;-0.370;2022-07-18T10:25:36;7.65;;;2.15;;
21527;SDS011;10925;49.102;-0.370;2022-07-18T10:28:04;3.33;;;1.75;;
21527;SDS011;10925;49.102;-0.370;2022-07-18T10:30:33;5.72;;;2.00;;
21527;SDS011;10925;49.102;-0.370;2022-07-18T10:33:01;6.35;;;2.13;;
21527;SDS011;10925;49.102;-0.370;2022-07-18T10:38:21;6.00;;;1.80;;
21527;SDS011;10925;49.102;-0.370;2022-07-18T10:43:37;6.57;;;1.90;;
21527;SDS011;10925;49.102;-0.370;2022-07-18T10:46:03;6.95;;;2.00;;
21527;SDS011;10925;49.102;-0.370;2022-07-18T10:51:01;16.02;;;2.30;;
21527;SDS011;10925;49.102;-0.370;2022-07-18T10:53:54;6.68;;;2.03;;
21527;SDS011;10925;49.102;-0.370;2022-07-18T10:58:57;5.72;;;1.90;;
21527;SDS011;10925;49.102;-0.370;2022-07-18T11:01:24;5.55;;;1.33;;
21527;SDS011;10925;49.102;-0.370;2022-07-18T11:06:54;2.15;;;1.30;;
21527;SDS011;10925;49.102;-0.370;2022-07-18T11:09:38;6.47;;;1.80;;
21527;SDS011;10925;49.102;-0.370;2022-07-18T11:17:58;5.13;;;1.42;;
21527;SDS011;10925;49.102;-0.370;2022-07-18T11:20:23;6.95;;;1.75;;
21527;SDS011;10925;49.102;-0.370;2022-07-18T11:22:50;4.78;;;1.80;;
21527;SDS011;10925;49.102;-0.370;2022-07-18T11:25:17;11.45;;;1.60;;
21527;SDS011;10925;49.102;-0.370;2022-07-18T11:28:06;3.80;;;1.75;;
21527;SDS011;10925;49.102;-0.370;2022-07-18T11:30:33;7.22;;;2.13;;
21527;SDS011;10925;49.102;-0.370;2022-07-18T11:33:00;8.48;;;1.73;;
21527;SDS011;10925;49.102;-0.370;2022-07-18T11:35:27;4.20;;;1.50;;
21527;SDS011;10925;49.102;-0.370;2022-07-18T11:37:52;5.85;;;1.75;;
21527;SDS011;10925;49.102;-0.370;2022-07-18T11:40:20;2.58;;;1.63;;
21527;SDS011;10925;49.102;-0.370;2022-07-18T11:42:49;6.40;;;1.70;;
21527;SDS011;10925;49.102;-0.370;2022-07-18T11:45:15;3.25;;;1.80;;
21527;SDS011;10925;49.102;-0.370;2022-07-18T11:47:46;2.17;;;1.52;;
21527;SDS011;10925;49.102;-0.370;2022-07-18T11:50:14;5.28;;;1.83;;
21527;SDS011;10925;49.102;-0.370;2022-07-18T11:52:40;6.47;;;1.92;;
21527;SDS011;10925;49.102;-0.370;2022-07-18T11:55:07;9.13;;;1.90;;
21527;SDS011;10925;49.102;-0.370;2022-07-18T11:57:34;6.75;;;1.63;;
21527;SDS011;10925;49.102;-0.370;2022-07-18T12:00:01;5.93;;;2.10;;
21527;SDS011;10925;49.102;-0.370;2022-07-18T12:05:39;3.13;;;1.80;;
21527;SDS011;10925;49.102;-0.370;2022-07-18T12:08:51;9.05;;;2.00;;
21527;SDS011;10925;49.102;-0.370;2022-07-18T12:13:44;3.28;;;1.85;;
21527;SDS011;10925;49.102;-0.370;2022-07-18T12:16:24;5.05;;;1.65;;
21527;SDS011;10925;49.102;-0.370;2022-07-18T12:18:53;3.47;;;1.58;;
21527;SDS011;10925;49.102;-0.370;2022-07-18T12:21:20;7.00;;;2.10;;
21527;SDS011;10925;49.102;-0.370;2022-07-18T12:23:47;7.85;;;2.33;;
21527;SDS011;10925;49.102;-0.370;2022-07-18T12:26:28;7.45;;;1.98;;
21527;SDS011;10925;49.102;-0.370;2022-07-18T12:29:12;8.93;;;2.00;;
21527;SDS011;10925;49.102;-0.370;2022-07-18T12:31:42;7.45;;;1.83;;
21527;SDS011;10925;49.102;-0.370;2022-07-18T12:36:49;6.90;;;2.25;;
21527;SDS011;10925;49.102;-0.370;2022-07-18T12:39:26;6.85;;;2.13;;
21527;SDS011;10925;49.102;-0.370;2022-07-18T12:41:53;8.05;;;2.08;;
21527;SDS011;10925;49.102;-0.370;2022-07-18T12:44:18;9.40;;;2.33;;
21527;SDS011;10925;49.102;-0.370;2022-07-18T12:46:44;9.35;;;1.92;;
21527;SDS011;10925;49.102;-0.370;2022-07-18T12:49:11;4.15;;;2.10;;
21527;SDS011;10925;49.102;-0.370;2022-07-18T12:51:37;6.40;;;2.08;;
21527;SDS011;10925;49.102;-0.370;2022-07-18T12:54:04;4.03;;;2.05;;
21527;SDS011;10925;49.102;-0.370;2022-07-18T12:56:29;2.83;;;1.92;;
21527;SDS011;10925;49.102;-0.370;2022-07-18T12:58:55;7.55;;;2.15;;
21527;SDS011;10925;49.102;-0.370;2022-07-18T13:01:22;8.68;;;2.30;;
21527;SDS011;10925;49.102;-0.370;2022-07-18T13:03:49;7.50;;;2.10;;
21527;SDS011;10925;49.102;-0.370;2022-07-18T13:06:15;6.72;;;2.30;;
21527;SDS011;10925;49.102;-0.370;2022-07-18T13:08:46;6.88;;;2.20;;
21527;SDS011;10925;49.102;-0.370;2022-07-18T13:11:13;7.30;;;2.40;;
21527;SDS011;10925;49.102;-0.370;2022-07-18T13:13:39;9.07;;;2.25;;
21527;SDS011;10925;49.102;-0.370;2022-07-18T13:16:06;5.75;;;2.30;;
21527;SDS011;10925;49.102;-0.370;2022-07-18T13:18:31;9.70;;;2.30;;
21527;SDS011;10925;49.102;-0.370;2022-07-18T13:20:58;5.68;;;2.30;;
21527;SDS011;10925;49.102;-0.370;2022-07-18T13:23:23;11.23;;;2.63;;
21527;SDS011;10925;49.102;-0.370;2022-07-18T13:25:50;9.07;;;2.28;;
21527;SDS011;10925;49.102;-0.370;2022-07-18T13:28:17;7.15;;;2.40;;
21527;SDS011;10925;49.102;-0.370;2022-07-18T13:30:44;12.57;;;2.55;;
21527;SDS011;10925;49.102;-0.370;2022-07-18T13:33:10;9.23;;;2.28;;
21527;SDS011;10925;49.102;-0.370;2022-07-18T13:35:36;8.05;;;2.20;;
21527;SDS011;10925;49.102;-0.370;2022-07-18T13:38:01;3.05;;;1.92;;
21527;SDS011;10925;49.102;-0.370;2022-07-18T13:40:28;5.57;;;2.63;;
21527;SDS011;10925;49.102;-0.370;2022-07-18T13:42:54;7.55;;;2.63;;
21527;SDS011;10925;49.102;-0.370;2022-07-18T13:45:19;7.88;;;2.28;;
21527;SDS011;10925;49.102;-0.370;2022-07-18T13:47:44;6.78;;;2.30;;
21527;SDS011;10925;49.102;-0.370;2022-07-18T13:50:11;9.38;;;2.50;;
21527;SDS011;10925;49.102;-0.370;2022-07-18T13:52:38;7.15;;;2.25;;
21527;SDS011;10925;49.102;-0.370;2022-07-18T13:55:05;7.40;;;2.38;;
21527;SDS011;10925;49.102;-0.370;2022-07-18T13:57:33;6.10;;;2.47;;
21527;SDS011;10925;49.102;-0.370;2022-07-18T13:59:59;7.32;;;2.38;;
21527;SDS011;10925;49.102;-0.370;2022-07-18T14:02:31;4.68;;;2.33;;
21527;SDS011;10925;49.102;-0.370;2022-07-18T14:04:56;6.13;;;2.38;;
21527;SDS011;10925;49.102;-0.370;2022-07-18T14:07:44;7.07;;;2.38;;
21527;SDS011;10925;49.102;-0.370;2022-07-18T14:10:10;11.52;;;2.85;;
21527;SDS011;10925;49.102;-0.370;2022-07-18T14:12:36;7.28;;;3.05;;
21527;SDS011;10925;49.102;-0.370;2022-07-18T14:15:01;7.63;;;2.38;;
21527;SDS011;10925;49.102;-0.370;2022-07-18T14:17:27;9.55;;;2.60;;
21527;SDS011;10925;49.102;-0.370;2022-07-18T14:19:54;8.10;;;2.35;;
21527;SDS011;10925;49.102;-0.370;2022-07-18T14:22:21;11.50;;;3.05;;
21527;SDS011;10925;49.102;-0.370;2022-07-18T14:24:48;7.03;;;2.88;;
21527;SDS011;10925;49.102;-0.370;2022-07-18T14:27:14;7.53;;;2.47;;
21527;SDS011;10925;49.102;-0.370;2022-07-18T14:29:49;4.95;;;2.75;;
21527;SDS011;10925;49.102;-0.370;2022-07-18T14:32:15;12.70;;;2.90;;
21527;SDS011;10925;49.102;-0.370;2022-07-18T14:34:41;10.00;;;3.20;;
21527;SDS011;10925;49.102;-0.370;2022-07-18T14:37:08;6.72;;;2.72;;
21527;SDS011;10925;49.102;-0.370;2022-07-18T14:39:35;4.70;;;2.47;;
21527;SDS011;10925;49.102;-0.370;2022-07-18T14:42:03;7.30;;;2.75;;
21527;SDS011;10925;49.102;-0.370;2022-07-18T14:44:35;6.35;;;2.80;;
21527;SDS011;10925;49.102;-0.370;2022-07-18T14:47:02;10.02;;;2.83;;
21527;SDS011;10925;49.102;-0.370;2022-07-18T14:49:31;9.25;;;3.08;;
21527;SDS011;10925;49.102;-0.370;2022-07-18T14:51:58;8.63;;;3.10;;
21527;SDS011;10925;49.102;-0.370;2022-07-18T14:54:27;8.55;;;3.15;;
21527;SDS011;10925;49.102;-0.370;2022-07-18T14:56:54;9.57;;;3.78;;
21527;SDS011;10925;49.102;-0.370;2022-07-18T14:59:21;15.60;;;3.30;;
21527;SDS011;10925;49.102;-0.370;2022-07-18T15:01:47;8.82;;;3.17;;
21527;SDS011;10925;49.102;-0.370;2022-07-18T15:04:14;8.48;;;3.40;;
21527;SDS011;10925;49.102;-0.370;2022-07-18T15:06:40;9.10;;;3.38;;
21527;SDS011;10925;49.102;-0.370;2022-07-18T15:09:06;14.77;;;4.03;;
21527;SDS011;10925;49.102;-0.370;2022-07-18T15:11:34;11.98;;;3.60;;
21527;SDS011;10925;49.102;-0.370;2022-07-18T15:13:59;12.80;;;3.30;;
21527;SDS011;10925;49.102;-0.370;2022-07-18T15:16:25;12.88;;;3.65;;
21527;SDS011;10925;49.102;-0.370;2022-07-18T15:21:17;5.88;;;2.83;;
21527;SDS011;10925;49.102;-0.370;2022-07-18T15:23:44;15.18;;;3.95;;